메인 페이지
METAR-TAF:

METAR-TAF

공항 :

콜럼버스, 조지아, 미국

위도: 32-30-58N, 경도: 084-56-32W, 고도: 121m

현재 날씨관측

예보는 43분 전, 17:51시(UTC)에 발표되었습니다.
동남동10kt
온도 12°C
습도 88%
기압 1019 hPa
시정: 16.1km
고도 600ft 상공 흐림

METAR: KCSG 201751Z 12010KT 10SM OVC006 12/10 A3008 RMK AO2 SLP185 T01170100 10117 20072 56016

시각: 13:34 (18:34 UTC)

예보

예보는 39분 전, 17:55시(UTC)에 발표되었습니다.
예보 대상 시간: 20일 18시부터 21일 18시까지 (UTC)
6kt
시정: 10km
고도 500ft 상공 흐림
21일 0000시부터 (UTC)
남동7kt
시정: 3.2km
고도 400ft 상공 흐림
박무, 시계 내 소나기
21일 0600시부터 (UTC)
6kt
시정: 3.2km
고도 700ft 상공 흐림
박무, 시계 내 소나기
21일 0900시부터 (UTC)
5kt
시정: 3.2km
고도 500ft 상공 흐림
박무
확률 30%
21일 09시부터 21일 15시까지 (UTC)
시정: 1.6km
고도 300ft 상공 흐림
약한소나기
21일 1700시부터 (UTC)
남남서5kt
시정: 10km
고도 1000ft 상공 흐림
시계 내 소나기

TAF: KCSG 201755Z 2018/2118 10006KT P6SM OVC005 FM210000 14007KT 2SM BR VCSH OVC004 FM210600 19006KT 2SM BR VCSH OVC007 FM210900 19005KT 2SM BR OVC005 PROB30 2109/2115 1SM -SHRA OVC003 FM211700 21005KT P6SM VCSH OVC010

4,000개 이상의 공항 관측 자료 및 예보 (METAR 및 TAF 보고).

지도상에서 검색 가능한 기상관측소가 노란 점과 빨간 점으로 표시되어 있습니다.

기상관측소 명을 보려면 표시 위로 마우스를 이동하세요.

날씨 관측과 예보를 보려면 클릭하세요.

지도 변경 : 확대하려면 엑스 표시가 있는 녹색 버튼, 축소하려면 빼기 표시가 있는 녹색 버튼, 다음 페이지의 지도를 보려면 녹색 화살표를 클릭하세요.


METAR-TAF: